Time;durP1;ratioP1;P1;durP2;ratioP2;P2;SDS_P1;SDS_P2;PMS_P1;PMS_P2;Temp;Humidity;BMP_temperature;BMP_pressure;BME280_temperature;BME280_humidity;BME280_pressure;Samples;Min_cycle;Max_cycle;Signal;HPM_P1;HPM_P2
2023/05/17 00:01:03;;;;;;;;;;;20.70;44.90;;;;;;5081206;28;20370;-53
2023/05/17 00:03:28;;;;;;;;;;;20.70;44.80;;;;;;5078630;28;20574;-53
2023/05/17 00:05:53;;;;;;;;;;;20.70;44.80;;;;;;5079343;28;19916;-53
2023/05/17 00:08:19;;;;;;;;;;;20.70;44.80;;;;;;5080778;28;19963;-53
2023/05/17 00:10:44;;;;;;;;;;;20.70;44.80;;;;;;5082602;28;20645;-53
2023/05/17 00:13:10;;;;;;;;;;;20.70;44.80;;;;;;5078427;28;20288;-53
2023/05/17 00:15:35;;;;;;;;;;;20.70;44.80;;;;;;5060373;28;19912;-53
2023/05/17 00:18:01;;;;;;;;;;;20.70;44.80;;;;;;5081709;28;20009;-53
2023/05/17 00:20:26;;;;;;;;;;;20.60;44.70;;;;;;5055749;28;19920;-52
2023/05/17 00:22:52;;;;;;;;;;;20.70;44.70;;;;;;5083130;28;19934;-53
2023/05/17 00:25:17;;;;;;;;;;;20.60;44.60;;;;;;5064506;28;19939;-53
2023/05/17 00:27:42;;;;;;;;;;;20.70;45.30;;;;;;5082922;28;19916;-52
2023/05/17 00:30:08;;;;;;;;;;;20.60;44.60;;;;;;5082084;28;19931;-53
2023/05/17 00:32:33;;;;;;;;;;;20.60;44.50;;;;;;5063448;28;19968;-53
2023/05/17 00:34:59;;;;;;;;;;;20.60;44.50;;;;;;5053583;28;19916;-54
2023/05/17 00:37:24;;;;;;;;;;;20.60;44.50;;;;;;5079494;28;19916;-53
2023/05/17 00:39:51;;;;;;;;;;;20.60;44.50;;;;;;5086913;28;19937;-53
2023/05/17 00:42:17;;;;;;;;;;;20.60;44.50;;;;;;5052970;28;20292;-53
2023/05/17 00:44:42;;;;;;;;;;;20.60;44.60;;;;;;5077618;28;19920;-53
2023/05/17 00:47:08;;;;;;;;;;;20.60;44.60;;;;;;5063822;28;20407;-53
2023/05/17 00:49:33;;;;;;;;;;;20.60;44.50;;;;;;5080547;28;19924;-53
2023/05/17 00:51:59;;;;;;;;;;;20.60;44.50;;;;;;5081254;28;19924;-53
2023/05/17 00:54:24;;;;;;;;;;;20.60;44.50;;;;;;5079602;28;19912;-52
2023/05/17 00:56:50;;;;;;;;;;;20.60;44.50;;;;;;5083329;28;19997;-53
2023/05/17 00:59:15;;;;;;;;;;;20.60;44.50;;;;;;5046220;28;19912;-53
2023/05/17 01:01:41;;;;;;;;;;;20.60;44.40;;;;;;5052911;28;19927;-53
2023/05/17 01:04:07;;;;;;;;;;;20.60;44.40;;;;;;5078926;28;19927;-53
2023/05/17 01:06:32;;;;;;;;;;;20.50;44.30;;;;;;5075864;28;19920;-53
2023/05/17 01:08:58;;;;;;;;;;;20.60;44.30;;;;;;5080503;28;20276;-53
2023/05/17 01:11:28;;;;;;;;;;;20.60;44.30;;;;;;5078968;28;20011;-54
2023/05/17 01:14:00;;;;;;;;;;;20.60;44.30;;;;;;5048262;28;19920;-53
2023/05/17 01:16:47;;;;;;;;;;;20.60;44.30;;;;;;5079334;28;19912;-53
2023/05/17 01:19:31;;;;;;;;;;;20.60;44.20;;;;;;5081034;28;19913;-54
2023/05/17 01:22:03;;;;;;;;;;;20.60;44.10;;;;;;5080331;28;20396;-53
2023/05/17 01:24:46;;;;;;;;;;;20.60;44.10;;;;;;5077877;28;19916;-53
2023/05/17 01:27:12;;;;;;;;;;;20.60;44.00;;;;;;5078959;28;19913;-53
2023/05/17 01:29:37;;;;;;;;;;;20.60;43.90;;;;;;5095256;28;19965;-53
2023/05/17 01:32:03;;;;;;;;;;;20.60;44.50;;;;;;5090643;28;19932;-54
2023/05/17 01:34:28;;;;;;;;;;;20.70;43.80;;;;;;5088306;28;19916;-53
2023/05/17 01:36:53;;;;;;;;;;;20.70;43.70;;;;;;5062052;28;19955;-53
2023/05/17 01:39:19;;;;;;;;;;;20.70;43.60;;;;;;5090826;28;19998;-53
2023/05/17 01:42:03;;;;;;;;;;;20.70;43.50;;;;;;5082386;28;19909;-53
2023/05/17 01:44:32;;;;;;;;;;;20.80;43.50;;;;;;5087924;28;19916;-53
2023/05/17 01:46:59;;;;;;;;;;;20.80;43.40;;;;;;5083600;28;20302;-53
2023/05/17 01:49:29;;;;;;;;;;;20.80;43.30;;;;;;5074489;28;19951;-53
2023/05/17 01:51:54;;;;;;;;;;;20.80;43.30;;;;;;5068213;28;19942;-53
2023/05/17 01:54:20;;;;;;;;;;;20.80;43.30;;;;;;5092586;28;19916;-54
2023/05/17 01:56:47;;;;;;;;;;;20.80;43.30;;;;;;5094990;28;19916;-54
2023/05/17 01:59:13;;;;;;;;;;;20.80;43.20;;;;;;5086335;28;19916;-55
2023/05/17 02:01:39;;;;;;;;;;;20.80;43.20;;;;;;5082771;28;20272;-54
2023/05/17 02:04:04;;;;;;;;;;;20.80;43.20;;;;;;5083348;28;19918;-54
2023/05/17 02:06:30;;;;;;;;;;;20.80;43.10;;;;;;5084987;28;19951;-54
2023/05/17 02:08:57;;;;;;;;;;;20.80;43.10;;;;;;5061781;28;21151;-54
2023/05/17 02:11:22;;;;;;;;;;;20.80;43.10;;;;;;5064853;28;19917;-54
2023/05/17 02:13:48;;;;;;;;;;;20.70;43.00;;;;;;5054626;28;19927;-54
2023/05/17 02:16:14;;;;;;;;;;;20.70;43.00;;;;;;5084022;28;19923;-54
2023/05/17 02:18:40;;;;;;;;;;;20.70;43.00;;;;;;5063119;28;19985;-55
2023/05/17 02:21:05;;;;;;;;;;;20.70;43.00;;;;;;5083940;28;19934;-54
2023/05/17 02:23:30;;;;;;;;;;;20.70;43.00;;;;;;5048928;28;19916;-54
2023/05/17 02:25:56;;;;;;;;;;;20.70;43.00;;;;;;5084588;28;19955;-55
2023/05/17 02:28:21;;;;;;;;;;;20.70;42.90;;;;;;5083746;28;19919;-54
2023/05/17 02:30:47;;;;;;;;;;;20.70;42.90;;;;;;5082960;28;19920;-54
2023/05/17 02:33:12;;;;;;;;;;;20.60;42.80;;;;;;5084322;28;19920;-54
2023/05/17 02:35:38;;;;;;;;;;;20.70;42.90;;;;;;5082532;28;19916;-54
2023/05/17 02:38:03;;;;;;;;;;;20.70;42.90;;;;;;5084930;28;20347;-54
2023/05/17 02:40:29;;;;;;;;;;;20.70;42.90;;;;;;5080634;28;19916;-54
2023/05/17 02:42:54;;;;;;;;;;;20.70;42.80;;;;;;5083357;28;19912;-54
2023/05/17 02:45:20;;;;;;;;;;;20.70;42.80;;;;;;5056177;28;19995;-54
2023/05/17 02:47:45;;;;;;;;;;;20.60;42.70;;;;;;5084148;28;20387;-54
2023/05/17 02:50:10;;;;;;;;;;;20.60;42.80;;;;;;5081206;28;20504;-54
2023/05/17 02:52:36;;;;;;;;;;;20.60;42.70;;;;;;5082347;28;19923;-54
2023/05/17 02:55:03;;;;;;;;;;;20.70;42.90;;;;;;5084784;28;20012;-54
2023/05/17 02:57:28;;;;;;;;;;;20.60;42.60;;;;;;5082790;28;19973;-54
2023/05/17 02:59:54;;;;;;;;;;;20.60;42.60;;;;;;5082785;28;20299;-54
2023/05/17 03:02:19;;;;;;;;;;;20.60;42.60;;;;;;5064941;28;19912;-54
2023/05/17 03:04:45;;;;;;;;;;;20.60;42.60;;;;;;5079762;28;19927;-54
2023/05/17 03:07:10;;;;;;;;;;;20.60;42.50;;;;;;5080579;28;19920;-54
2023/05/17 03:09:36;;;;;;;;;;;20.60;42.50;;;;;;5056439;28;20007;-54
2023/05/17 03:12:02;;;;;;;;;;;20.60;42.50;;;;;;5082784;28;19938;-54
2023/05/17 03:14:27;;;;;;;;;;;20.60;42.40;;;;;;5062685;28;20338;-54
2023/05/17 03:16:53;;;;;;;;;;;20.50;42.40;;;;;;5083044;28;19970;-54
2023/05/17 03:19:18;;;;;;;;;;;20.50;42.30;;;;;;5082478;28;19916;-54
2023/05/17 03:21:44;;;;;;;;;;;20.50;42.20;;;;;;5080932;28;19947;-54
2023/05/17 03:24:09;;;;;;;;;;;20.50;42.20;;;;;;5081317;28;19932;-54
2023/05/17 03:26:35;;;;;;;;;;;20.50;42.20;;;;;;5090951;28;19962;-54
2023/05/17 03:29:00;;;;;;;;;;;20.50;42.20;;;;;;5086051;28;19955;-54
2023/05/17 03:31:26;;;;;;;;;;;20.50;42.20;;;;;;5091188;28;19917;-54
2023/05/17 03:33:51;;;;;;;;;;;20.50;42.20;;;;;;5075872;28;19965;-54
2023/05/17 03:36:16;;;;;;;;;;;20.50;42.10;;;;;;5082714;28;19924;-54
2023/05/17 03:38:42;;;;;;;;;;;20.50;42.10;;;;;;5091782;28;19977;-54
2023/05/17 03:41:07;;;;;;;;;;;20.50;42.10;;;;;;5078467;28;19916;-54
2023/05/17 03:43:33;;;;;;;;;;;20.50;42.00;;;;;;5088448;28;20010;-54
2023/05/17 03:45:58;;;;;;;;;;;20.50;42.10;;;;;;5089042;28;19920;-54
2023/05/17 03:48:24;;;;;;;;;;;20.40;41.90;;;;;;5074128;28;19912;-54
2023/05/17 03:50:49;;;;;;;;;;;20.40;42.00;;;;;;5090591;28;19931;-52
2023/05/17 03:53:15;;;;;;;;;;;20.40;41.90;;;;;;5088516;28;20279;-55
2023/05/17 03:55:40;;;;;;;;;;;20.40;41.90;;;;;;5088647;28;19913;-54
2023/05/17 03:58:06;;;;;;;;;;;20.40;41.90;;;;;;5054537;28;19908;-54
2023/05/17 04:00:31;;;;;;;;;;;20.40;41.90;;;;;;5075495;28;19916;-55
2023/05/17 04:02:57;;;;;;;;;;;20.40;41.90;;;;;;5080966;28;19923;-54
2023/05/17 04:05:23;;;;;;;;;;;20.40;41.80;;;;;;5054816;28;20388;-54
2023/05/17 04:07:48;;;;;;;;;;;20.40;41.80;;;;;;5079822;28;19923;-54
2023/05/17 04:10:14;;;;;;;;;;;20.40;41.80;;;;;;5080992;28;20356;-54
2023/05/17 04:12:39;;;;;;;;;;;20.40;41.70;;;;;;5082691;28;20291;-54
2023/05/17 04:15:05;;;;;;;;;;;20.40;41.50;;;;;;5079488;28;19912;-54
2023/05/17 04:17:31;;;;;;;;;;;20.40;41.60;;;;;;5083095;28;20297;-54
2023/05/17 04:19:56;;;;;;;;;;;20.40;41.50;;;;;;5061418;28;19913;-54
2023/05/17 04:22:22;;;;;;;;;;;20.40;41.50;;;;;;5077815;28;19997;-54
2023/05/17 04:24:47;;;;;;;;;;;20.40;41.40;;;;;;5084500;28;19920;-54
2023/05/17 04:27:13;;;;;;;;;;;20.40;41.40;;;;;;5079818;28;19908;-55
2023/05/17 04:29:39;;;;;;;;;;;20.40;41.50;;;;;;5090306;28;19927;-54
2023/05/17 04:32:05;;;;;;;;;;;20.40;41.40;;;;;;5086362;28;20380;-54
2023/05/17 04:34:31;;;;;;;;;;;20.40;41.40;;;;;;5074100;28;19908;-54
2023/05/17 04:36:57;;;;;;;;;;;20.40;41.30;;;;;;5068214;28;19955;-54
2023/05/17 04:39:22;;;;;;;;;;;20.40;41.30;;;;;;5079004;28;20012;-54
2023/05/17 04:41:47;;;;;;;;;;;20.40;41.20;;;;;;5061197;28;19916;-54
2023/05/17 04:44:13;;;;;;;;;;;20.30;41.30;;;;;;5078909;28;20053;-54
2023/05/17 04:46:38;;;;;;;;;;;20.30;41.20;;;;;;5080529;28;20248;-54
2023/05/17 04:49:04;;;;;;;;;;;20.30;41.20;;;;;;5080350;28;19935;-55
2023/05/17 04:51:30;;;;;;;;;;;20.40;41.20;;;;;;5079490;28;19972;-54
2023/05/17 04:53:55;;;;;;;;;;;20.40;41.20;;;;;;5081183;28;20017;-54
2023/05/17 04:56:21;;;;;;;;;;;20.30;41.00;;;;;;5081731;28;19912;-54
2023/05/17 04:58:47;;;;;;;;;;;20.30;41.00;;;;;;5086422;28;19938;-54
2023/05/17 05:01:12;;;;;;;;;;;20.30;41.00;;;;;;5079499;28;20062;-54
2023/05/17 05:03:37;;;;;;;;;;;20.30;40.90;;;;;;5077128;28;19928;-54
2023/05/17 05:06:03;;;;;;;;;;;20.30;40.80;;;;;;5085439;28;20291;-54
2023/05/17 05:08:29;;;;;;;;;;;20.30;40.80;;;;;;5062547;28;19916;-54
2023/05/17 05:10:54;;;;;;;;;;;20.40;40.80;;;;;;5082281;28;20011;-54
2023/05/17 05:13:20;;;;;;;;;;;20.30;40.80;;;;;;5084643;28;20345;-54
2023/05/17 05:15:46;;;;;;;;;;;20.30;40.60;;;;;;5087134;28;19912;-54
2023/05/17 05:18:11;;;;;;;;;;;20.40;40.60;;;;;;5056940;28;19924;-54
2023/05/17 05:20:36;;;;;;;;;;;20.50;40.50;;;;;;5081577;28;22041;-54
2023/05/17 05:23:04;;;;;;;;;;;20.50;40.40;;;;;;5085851;28;19911;-54
2023/05/17 05:25:30;;;;;;;;;;;20.40;40.30;;;;;;5065608;28;20257;-54
2023/05/17 05:27:55;;;;;;;;;;;20.40;40.40;;;;;;5085050;28;19917;-53
2023/05/17 05:30:21;;;;;;;;;;;20.40;40.30;;;;;;5085827;28;19966;-54
2023/05/17 05:32:47;;;;;;;;;;;20.50;41.00;;;;;;5086176;28;19928;-54
2023/05/17 05:35:13;;;;;;;;;;;20.50;40.30;;;;;;5082189;28;19912;-54
2023/05/17 05:37:38;;;;;;;;;;;20.50;40.10;;;;;;5087721;28;19923;-54
2023/05/17 05:40:04;;;;;;;;;;;20.50;40.00;;;;;;5082805;28;19965;-55
2023/05/17 05:42:29;;;;;;;;;;;20.60;40.00;;;;;;5083782;28;20135;-54
2023/05/17 05:44:55;;;;;;;;;;;20.50;40.00;;;;;;5046357;28;20349;-54
2023/05/17 05:47:20;;;;;;;;;;;20.50;40.00;;;;;;5083381;28;19932;-53
2023/05/17 05:49:46;;;;;;;;;;;20.60;40.10;;;;;;5061588;28;21170;-54
2023/05/17 05:52:11;;;;;;;;;;;20.60;40.00;;;;;;5059548;28;19916;-54
2023/05/17 05:54:37;;;;;;;;;;;20.60;39.90;;;;;;5079466;28;19972;-53
2023/05/17 05:57:02;;;;;;;;;;;20.60;39.80;;;;;;5077889;28;19919;-54
2023/05/17 05:59:28;;;;;;;;;;;20.60;39.90;;;;;;5077976;28;21670;-54
2023/05/17 06:01:53;;;;;;;;;;;20.60;39.90;;;;;;5079987;28;19920;-53
2023/05/17 06:04:19;;;;;;;;;;;20.60;39.90;;;;;;5071384;28;19935;-54
2023/05/17 06:06:44;;;;;;;;;;;20.70;39.90;;;;;;5076129;28;19913;-55
2023/05/17 06:09:11;;;;;;;;;;;20.70;39.90;;;;;;5074975;28;19920;-55
2023/05/17 06:11:36;;;;;;;;;;;20.70;39.80;;;;;;5058272;28;19920;-54
2023/05/17 06:14:02;;;;;;;;;;;20.70;39.90;;;;;;5074401;28;19912;-54
2023/05/17 06:16:27;;;;;;;;;;;20.70;40.00;;;;;;5055203;28;19963;-55
2023/05/17 06:18:53;;;;;;;;;;;20.70;39.90;;;;;;5056086;28;19922;-54
2023/05/17 06:21:18;;;;;;;;;;;20.70;39.80;;;;;;5075038;28;20300;-54
2023/05/17 06:23:44;;;;;;;;;;;20.70;39.80;;;;;;5076371;28;19920;-54
2023/05/17 06:26:10;;;;;;;;;;;20.70;40.40;;;;;;5053638;28;19916;-54
2023/05/17 06:28:35;;;;;;;;;;;20.70;39.70;;;;;;5055788;28;20403;-55
2023/05/17 06:31:01;;;;;;;;;;;20.70;39.60;;;;;;5081572;28;19928;-54
2023/05/17 06:33:26;;;;;;;;;;;20.70;39.60;;;;;;5062845;28;19966;-54
2023/05/17 06:35:52;;;;;;;;;;;20.70;39.60;;;;;;5081619;28;19937;-54
2023/05/17 06:38:17;;;;;;;;;;;20.70;39.60;;;;;;5084695;28;20027;-54
2023/05/17 06:40:43;;;;;;;;;;;20.70;39.60;;;;;;5085019;28;20384;-55
2023/05/17 06:43:08;;;;;;;;;;;20.70;39.50;;;;;;5091774;28;19922;-54
2023/05/17 06:45:33;;;;;;;;;;;20.70;39.40;;;;;;5091935;28;19912;-54
2023/05/17 06:47:59;;;;;;;;;;;20.70;39.50;;;;;;5088280;28;19916;-54
2023/05/17 06:50:27;;;;;;;;;;;20.70;39.50;;;;;;5094843;28;19965;-54
2023/05/17 06:52:52;;;;;;;;;;;20.70;39.40;;;;;;5092482;28;19916;-54
2023/05/17 06:55:18;;;;;;;;;;;20.70;39.40;;;;;;5088084;28;19941;-55
2023/05/17 06:57:43;;;;;;;;;;;20.70;39.30;;;;;;5070273;28;19916;-54
2023/05/17 07:00:09;;;;;;;;;;;20.60;39.30;;;;;;5091432;28;19964;-54
2023/05/17 07:02:36;;;;;;;;;;;20.70;39.30;;;;;;5079008;28;19920;-54
2023/05/17 07:05:01;;;;;;;;;;;20.60;39.10;;;;;;5081812;28;20063;-53
2023/05/17 07:07:27;;;;;;;;;;;20.60;40.00;;;;;;5086932;28;21212;-55
2023/05/17 07:09:52;;;;;;;;;;;20.70;39.20;;;;;;5088406;28;20286;-54
2023/05/17 07:12:18;;;;;;;;;;;20.70;39.10;;;;;;5082908;28;19920;-54
2023/05/17 07:14:43;;;;;;;;;;;20.70;39.10;;;;;;5096296;28;19919;-54
2023/05/17 07:17:09;;;;;;;;;;;20.70;39.00;;;;;;5097320;28;20433;-54
2023/05/17 07:19:35;;;;;;;;;;;20.80;39.00;;;;;;5085196;28;19934;-54
2023/05/17 07:22:00;;;;;;;;;;;20.80;39.60;;;;;;5084756;28;20374;-54
2023/05/17 07:24:26;;;;;;;;;;;20.80;39.00;;;;;;5093502;28;20306;-54
2023/05/17 07:26:51;;;;;;;;;;;20.70;38.90;;;;;;5090195;28;21166;-54
2023/05/17 07:29:17;;;;;;;;;;;20.80;39.00;;;;;;5089695;28;20425;-54
2023/05/17 07:31:42;;;;;;;;;;;20.80;38.90;;;;;;5082888;28;19993;-54
2023/05/17 07:34:08;;;;;;;;;;;20.80;38.80;;;;;;5072627;28;19920;-54
2023/05/17 07:36:33;;;;;;;;;;;20.80;38.80;;;;;;5083095;28;19927;-54
2023/05/17 07:38:59;;;;;;;;;;;20.80;38.80;;;;;;5084582;28;19919;-54
2023/05/17 07:41:25;;;;;;;;;;;20.70;38.80;;;;;;5081527;28;19912;-54
2023/05/17 07:43:51;;;;;;;;;;;20.80;38.80;;;;;;5081982;28;20378;-54
2023/05/17 07:46:16;;;;;;;;;;;20.80;38.60;;;;;;5083920;28;19921;-54
2023/05/17 07:48:42;;;;;;;;;;;20.80;38.60;;;;;;5070828;28;19920;-54
2023/05/17 07:51:07;;;;;;;;;;;20.80;38.50;;;;;;5083021;28;19929;-54
2023/05/17 07:53:33;;;;;;;;;;;20.80;38.50;;;;;;5069651;28;20026;-54
2023/05/17 07:55:58;;;;;;;;;;;20.80;38.40;;;;;;5069821;28;20387;-55
2023/05/17 07:58:24;;;;;;;;;;;20.80;38.40;;;;;;5079103;28;19916;-54
2023/05/17 08:00:49;;;;;;;;;;;20.80;38.40;;;;;;5081047;28;19913;-55
2023/05/17 08:03:15;;;;;;;;;;;20.80;38.40;;;;;;5088272;28;20039;-55
2023/05/17 08:05:40;;;;;;;;;;;20.80;38.40;;;;;;5092254;28;19912;-55
2023/05/17 08:08:05;;;;;;;;;;;20.80;38.40;;;;;;5086989;28;19912;-55
2023/05/17 08:10:32;;;;;;;;;;;20.80;38.30;;;;;;5079702;28;20011;-55
2023/05/17 08:12:57;;;;;;;;;;;20.80;38.20;;;;;;5082588;28;19980;-54
2023/05/17 08:15:22;;;;;;;;;;;20.80;38.30;;;;;;5088610;28;19916;-55
2023/05/17 08:17:48;;;;;;;;;;;20.80;38.10;;;;;;5082666;28;20398;-55
2023/05/17 08:20:14;;;;;;;;;;;20.80;38.20;;;;;;5087345;28;19969;-55
2023/05/17 08:22:40;;;;;;;;;;;20.80;38.20;;;;;;5092094;28;19908;-55
2023/05/17 08:25:05;;;;;;;;;;;20.80;38.20;;;;;;5090269;28;20315;-55
2023/05/17 08:27:31;;;;;;;;;;;20.80;38.10;;;;;;5082461;28;19919;-55
2023/05/17 08:29:56;;;;;;;;;;;20.80;38.10;;;;;;5070164;28;20469;-55
2023/05/17 08:32:22;;;;;;;;;;;20.80;38.10;;;;;;5085578;28;19917;-55
2023/05/17 08:34:48;;;;;;;;;;;20.80;38.10;;;;;;5086272;28;19924;-55
2023/05/17 08:37:13;;;;;;;;;;;20.90;38.30;;;;;;5074885;28;19923;-55
2023/05/17 08:39:38;;;;;;;;;;;20.90;38.10;;;;;;5074265;28;19912;-55
2023/05/17 08:42:07;;;;;;;;;;;20.80;38.10;;;;;;5086767;28;19912;-55
2023/05/17 08:44:32;;;;;;;;;;;20.80;38.10;;;;;;5086871;28;19952;-55
2023/05/17 08:46:59;;;;;;;;;;;20.80;38.10;;;;;;5089771;28;19971;-55
2023/05/17 08:49:26;;;;;;;;;;;20.90;38.20;;;;;;5062917;28;19991;-55
2023/05/17 08:51:52;;;;;;;;;;;20.90;38.30;;;;;;5082025;28;19920;-55
2023/05/17 08:54:17;;;;;;;;;;;20.90;38.20;;;;;;5079913;28;19927;-55
2023/05/17 08:56:43;;;;;;;;;;;20.90;38.90;;;;;;5084251;28;19970;-55
2023/05/17 08:59:11;;;;;;;;;;;20.80;38.10;;;;;;5063407;28;19912;-55
2023/05/17 09:01:40;;;;;;;;;;;20.90;38.30;;;;;;5060381;28;19954;-55
2023/05/17 09:04:07;;;;;;;;;;;20.90;38.30;;;;;;5089072;28;19919;-55
2023/05/17 09:06:33;;;;;;;;;;;20.90;38.10;;;;;;5079978;28;19966;-56
2023/05/17 09:09:00;;;;;;;;;;;20.90;38.00;;;;;;5084337;28;19916;-55
2023/05/17 09:11:26;;;;;;;;;;;20.90;38.10;;;;;;5060967;28;19965;-55
2023/05/17 09:13:52;;;;;;;;;;;20.90;38.10;;;;;;5079907;28;20029;-55
2023/05/17 09:16:19;;;;;;;;;;;20.90;38.10;;;;;;5085798;28;19916;-55
2023/05/17 09:18:48;;;;;;;;;;;20.90;38.00;;;;;;5080604;28;20406;-55
2023/05/17 09:21:14;;;;;;;;;;;20.90;38.00;;;;;;5070317;28;19912;-54
2023/05/17 09:23:39;;;;;;;;;;;20.90;37.90;;;;;;5079214;28;19942;-54
2023/05/17 09:26:06;;;;;;;;;;;21.00;37.90;;;;;;5058767;28;19927;-53
2023/05/17 09:28:35;;;;;;;;;;;21.00;37.80;;;;;;5089771;28;20394;-53
2023/05/17 09:31:04;;;;;;;;;;;21.00;37.70;;;;;;5064460;28;19916;-54
2023/05/17 09:33:29;;;;;;;;;;;21.00;37.80;;;;;;5083344;28;20010;-54
2023/05/17 09:35:55;;;;;;;;;;;21.00;37.70;;;;;;5060642;28;19951;-54
2023/05/17 09:38:24;;;;;;;;;;;21.00;37.80;;;;;;5084040;28;20340;-55
2023/05/17 09:40:49;;;;;;;;;;;21.20;37.80;;;;;;5086651;28;19916;-55
2023/05/17 09:43:15;;;;;;;;;;;21.30;37.90;;;;;;5054006;28;19919;-54
2023/05/17 09:45:40;;;;;;;;;;;21.70;37.30;;;;;;5085559;28;20109;-54
2023/05/17 09:48:18;;;;;;;;;;;22.10;36.40;;;;;;5084316;28;20273;-54
2023/05/17 09:50:47;;;;;;;;;;;22.50;35.60;;;;;;5079083;28;19919;-55
2023/05/17 09:53:22;;;;;;;;;;;22.80;35.20;;;;;;5082899;28;19955;-56
2023/05/17 09:55:48;;;;;;;;;;;22.80;35.00;;;;;;5075993;28;19921;-55
2023/05/17 09:58:13;;;;;;;;;;;22.90;35.00;;;;;;5077102;28;19923;-55
2023/05/17 10:00:40;;;;;;;;;;;23.10;34.80;;;;;;5085550;28;19920;-54
2023/05/17 10:03:06;;;;;;;;;;;23.30;34.30;;;;;;5071414;28;20265;-54
2023/05/17 10:05:31;;;;;;;;;;;23.40;34.30;;;;;;5053012;28;19919;-54
2023/05/17 10:07:57;;;;;;;;;;;23.40;34.10;;;;;;5090933;28;19933;-54
2023/05/17 10:10:23;;;;;;;;;;;23.40;34.20;;;;;;5087920;28;19913;-54
2023/05/17 10:12:49;;;;;;;;;;;23.40;34.20;;;;;;5083575;28;19932;-54
2023/05/17 10:15:16;;;;;;;;;;;23.50;33.90;;;;;;5087227;28;19916;-54
2023/05/17 10:17:41;;;;;;;;;;;23.70;33.50;;;;;;5095027;28;19909;-54
2023/05/17 10:20:07;;;;;;;;;;;23.80;33.40;;;;;;5071777;28;19912;-54
2023/05/17 10:22:33;;;;;;;;;;;23.80;33.50;;;;;;5089990;28;20001;-53
2023/05/17 10:24:58;;;;;;;;;;;23.70;33.60;;;;;;5088521;28;20011;-54
2023/05/17 10:27:24;;;;;;;;;;;23.70;33.50;;;;;;5091286;28;19974;-54
2023/05/17 10:29:50;;;;;;;;;;;23.90;33.20;;;;;;5087310;28;19920;-54
2023/05/17 10:32:16;;;;;;;;;;;24.00;33.00;;;;;;5070732;28;19963;-54
2023/05/17 10:34:41;;;;;;;;;;;24.10;33.00;;;;;;5088040;28;20404;-54
2023/05/17 10:37:07;;;;;;;;;;;23.90;33.30;;;;;;5090565;28;19952;-55
2023/05/17 10:39:33;;;;;;;;;;;23.90;33.80;;;;;;5086899;28;19950;-55
2023/05/17 10:42:02;;;;;;;;;;;24.10;33.40;;;;;;5090045;28;19945;-54
2023/05/17 10:44:29;;;;;;;;;;;24.20;33.10;;;;;;5092078;28;19919;-54
2023/05/17 10:46:56;;;;;;;;;;;24.30;33.00;;;;;;5088437;28;19924;-54
2023/05/17 10:49:31;;;;;;;;;;;24.30;33.10;;;;;;5091119;28;19974;-54
2023/05/17 10:51:57;;;;;;;;;;;24.10;33.50;;;;;;5082142;28;19947;-55
2023/05/17 10:54:32;;;;;;;;;;;24.10;33.40;;;;;;5079820;28;19912;-54
2023/05/17 10:56:58;;;;;;;;;;;24.20;33.40;;;;;;5070506;28;20424;-54
2023/05/17 10:59:25;;;;;;;;;;;24.40;33.20;;;;;;5069883;28;19920;-56
2023/05/17 11:01:58;;;;;;;;;;;24.40;33.30;;;;;;5081345;28;20368;-54
2023/05/17 11:04:36;;;;;;;;;;;24.40;33.30;;;;;;5083847;28;20366;-54
2023/05/17 11:07:17;;;;;;;;;;;24.30;33.60;;;;;;5062752;28;20296;-54
2023/05/17 11:09:43;;;;;;;;;;;24.30;33.60;;;;;;5093149;28;19916;-54
2023/05/17 11:12:09;;;;;;;;;;;24.40;33.70;;;;;;5083379;28;19935;-55
2023/05/17 11:14:43;;;;;;;;;;;24.60;33.60;;;;;;5089346;28;19916;-54
2023/05/17 11:17:12;;;;;;;;;;;24.50;33.50;;;;;;5089597;28;20342;-55
2023/05/17 11:19:37;;;;;;;;;;;24.70;33.40;;;;;;5090347;28;19912;-54
2023/05/17 11:22:08;;;;;;;;;;;24.80;33.20;;;;;;5080355;28;19922;-53
2023/05/17 11:24:34;;;;;;;;;;;24.90;33.00;;;;;;5071992;28;19923;-54
2023/05/17 11:26:59;;;;;;;;;;;24.90;33.20;;;;;;5056626;28;19916;-55
2023/05/17 11:29:27;;;;;;;;;;;24.90;33.20;;;;;;5061056;28;19912;-55
2023/05/17 11:31:53;;;;;;;;;;;24.90;33.20;;;;;;5081716;28;20370;-54
2023/05/17 11:34:18;;;;;;;;;;;24.80;33.50;;;;;;5086088;28;19920;-54
2023/05/17 11:36:47;;;;;;;;;;;24.70;33.60;;;;;;5085924;28;20441;-55
2023/05/17 11:39:13;;;;;;;;;;;24.70;33.50;;;;;;5086499;28;20427;-54
2023/05/17 11:41:41;;;;;;;;;;;24.70;33.80;;;;;;5080541;28;19920;-53
2023/05/17 11:44:10;;;;;;;;;;;24.60;33.90;;;;;;5087473;28;19931;-54
2023/05/17 11:46:35;;;;;;;;;;;24.40;34.20;;;;;;5063973;28;20380;-54
2023/05/17 11:49:00;;;;;;;;;;;24.30;34.60;;;;;;5063212;28;19921;-54
2023/05/17 11:51:26;;;;;;;;;;;24.30;34.50;;;;;;5058515;28;19916;-55
2023/05/17 11:53:55;;;;;;;;;;;24.30;35.30;;;;;;5067167;28;19920;-55
2023/05/17 11:56:21;;;;;;;;;;;24.30;34.50;;;;;;5065394;28;19924;-55
2023/05/17 11:58:49;;;;;;;;;;;24.30;34.60;;;;;;5053079;28;19969;-54
2023/05/17 12:01:15;;;;;;;;;;;24.30;34.60;;;;;;5067533;28;19912;-54
2023/05/17 12:03:41;;;;;;;;;;;24.40;34.50;;;;;;5063249;28;19912;-54
2023/05/17 12:06:08;;;;;;;;;;;24.40;34.30;;;;;;5069413;28;20353;-54
2023/05/17 12:08:34;;;;;;;;;;;24.50;34.20;;;;;;5057091;28;19923;-54
2023/05/17 12:11:00;;;;;;;;;;;24.50;34.40;;;;;;5070410;28;19916;-53
2023/05/17 12:13:29;;;;;;;;;;;24.40;34.50;;;;;;5060912;28;19912;-53
2023/05/17 12:15:56;;;;;;;;;;;24.50;34.30;;;;;;5065555;28;20038;-54
2023/05/17 12:18:21;;;;;;;;;;;24.50;34.40;;;;;;5062807;28;19939;-55
2023/05/17 12:20:56;;;;;;;;;;;24.50;34.50;;;;;;5063413;28;19921;-55
2023/05/17 12:23:28;;;;;;;;;;;24.40;34.70;;;;;;5064853;28;19917;-54
2023/05/17 12:26:04;;;;;;;;;;;24.40;34.80;;;;;;5063390;28;20481;-54
2023/05/17 12:28:29;;;;;;;;;;;24.50;34.80;;;;;;5063831;28;19961;-54
2023/05/17 12:30:57;;;;;;;;;;;24.60;34.50;;;;;;5061183;28;19931;-54
2023/05/17 12:33:24;;;;;;;;;;;24.60;34.60;;;;;;5058199;28;20811;-55
2023/05/17 12:35:50;;;;;;;;;;;24.50;34.90;;;;;;5063727;28;19921;-54
2023/05/17 12:38:15;;;;;;;;;;;24.40;34.90;;;;;;5062019;28;19927;-53
2023/05/17 12:40:41;;;;;;;;;;;24.50;34.70;;;;;;5068490;28;19912;-54
2023/05/17 12:43:07;;;;;;;;;;;24.60;34.70;;;;;;5061397;28;20381;-54
2023/05/17 12:45:32;;;;;;;;;;;24.50;34.70;;;;;;5055442;28;19995;-54
2023/05/17 12:47:58;;;;;;;;;;;24.50;34.90;;;;;;5086633;28;20073;-53
2023/05/17 12:50:28;;;;;;;;;;;24.50;35.10;;;;;;5083261;28;20400;-53
2023/05/17 12:52:54;;;;;;;;;;;24.60;34.90;;;;;;5083407;28;20093;-54
2023/05/17 12:55:20;;;;;;;;;;;24.70;34.30;;;;;;5055202;28;20003;-55
2023/05/17 12:57:49;;;;;;;;;;;24.80;34.60;;;;;;5085193;28;19912;-54
2023/05/17 13:00:15;;;;;;;;;;;24.70;34.60;;;;;;5084173;28;19956;-54
2023/05/17 13:02:40;;;;;;;;;;;24.60;34.80;;;;;;5058071;28;19959;-54
2023/05/17 13:05:15;;;;;;;;;;;24.60;34.90;;;;;;5071008;28;19918;-55
2023/05/17 13:07:41;;;;;;;;;;;24.80;34.60;;;;;;5070487;28;19942;-54
2023/05/17 13:10:18;;;;;;;;;;;24.90;34.30;;;;;;5082856;28;20024;-55
2023/05/17 13:12:52;;;;;;;;;;;24.90;34.50;;;;;;5084970;28;19930;-54
2023/05/17 13:15:18;;;;;;;;;;;24.60;34.80;;;;;;5087918;28;19912;-55
2023/05/17 13:17:46;;;;;;;;;;;24.60;34.90;;;;;;5081290;28;19916;-55
2023/05/17 13:20:11;;;;;;;;;;;24.80;34.80;;;;;;5082508;28;20303;-55
2023/05/17 13:22:44;;;;;;;;;;;24.80;34.70;;;;;;5086633;28;19923;-54
2023/05/17 13:25:09;;;;;;;;;;;24.90;34.50;;;;;;5086851;28;19920;-54
2023/05/17 13:27:35;;;;;;;;;;;24.80;34.70;;;;;;5082132;28;19916;-54
2023/05/17 13:30:00;;;;;;;;;;;24.70;34.80;;;;;;5087713;28;20010;-54
2023/05/17 13:32:26;;;;;;;;;;;24.70;34.80;;;;;;5082215;28;19977;-55
2023/05/17 13:34:51;;;;;;;;;;;24.90;34.70;;;;;;5081777;28;19912;-55
2023/05/17 13:37:17;;;;;;;;;;;24.90;34.40;;;;;;5085306;28;19912;-54
2023/05/17 13:39:42;;;;;;;;;;;25.00;34.40;;;;;;5082052;28;19916;-54
2023/05/17 13:42:08;;;;;;;;;;;24.90;34.40;;;;;;5075777;28;20041;-55
2023/05/17 13:44:34;;;;;;;;;;;24.70;34.90;;;;;;5083117;28;20364;-55
2023/05/17 13:46:59;;;;;;;;;;;24.80;34.90;;;;;;5087840;28;19922;-54
2023/05/17 13:49:25;;;;;;;;;;;24.90;34.70;;;;;;5066368;28;20057;-54
2023/05/17 13:51:50;;;;;;;;;;;25.10;34.50;;;;;;5082291;28;19924;-54
2023/05/17 13:54:18;;;;;;;;;;;25.00;34.60;;;;;;5081959;28;19955;-55
2023/05/17 13:56:44;;;;;;;;;;;24.80;34.90;;;;;;5090054;28;20014;-54
2023/05/17 13:59:10;;;;;;;;;;;24.80;35.10;;;;;;5082385;28;20011;-55
2023/05/17 14:01:35;;;;;;;;;;;24.90;34.90;;;;;;5082098;28;20379;-54
2023/05/17 14:04:01;;;;;;;;;;;25.10;34.60;;;;;;5084055;28;20406;-55
2023/05/17 14:06:26;;;;;;;;;;;25.10;34.60;;;;;;5085300;28;19912;-54
2023/05/17 14:08:53;;;;;;;;;;;24.90;34.80;;;;;;5076998;28;19928;-53
2023/05/17 14:11:18;;;;;;;;;;;24.80;35.00;;;;;;5081240;28;19920;-54